![]() |
EMODnet Physics ERDDAP
Easier access to scientific data |
log in|
Brought to you by EMODnet Physics |
| Dataset Title: | NDBC - Collection of dew point temperature (DEWT) TimeSeries - IN SITU MultiPointTimeSeriesObservation
|
| Institution: | NDBC (Dataset ID: TS_DEWT_NDBC) |
| Information: | Summary
| License
| FGDC
| ISO 19115
| Metadata
| Background
| Subset
| Data Access Form
| Make a graph
|
| Name | Last modified | Size | Description | |
|---|---|---|---|---|
| Parent Directory | - | - | ||
| HMSA2_TS_DEWT_012016.nc | 16-Dec-2024 07:09 | 429832 | ||
| HMSA2_TS_DEWT_012017.nc | 16-Dec-2024 07:11 | 1627863 | ||
| HMSA2_TS_DEWT_012018.nc | 16-Dec-2024 07:12 | 1626903 | ||
| HMSA2_TS_DEWT_012019.nc | 16-Dec-2024 07:16 | 1627833 | ||
| HMSA2_TS_DEWT_012020.nc | 16-Dec-2024 07:20 | 1470292 | ||
| HMSA2_TS_DEWT_012021.nc | 16-Dec-2024 07:24 | 1627682 | ||
| HMSA2_TS_DEWT_012022.nc | 16-Dec-2024 07:29 | 1627550 | ||
| HMSA2_TS_DEWT_012023.nc | 16-Dec-2024 07:33 | 1627366 | ||
| HMSA2_TS_DEWT_012025.nc | 07-Feb-2025 10:34 | 1627193 | ||
| HMSA2_TS_DEWT_012026.nc | 02-Feb-2026 17:09 | 1627435 | ||
| HMSA2_TS_DEWT_022013.nc | 16-Dec-2024 06:53 | 1627398 | ||
| HMSA2_TS_DEWT_022016.nc | 16-Dec-2024 07:09 | 1627848 | ||
| HMSA2_TS_DEWT_022017.nc | 16-Dec-2024 07:11 | 1477184 | ||
| HMSA2_TS_DEWT_022018.nc | 16-Dec-2024 07:12 | 1473782 | ||
| HMSA2_TS_DEWT_022019.nc | 16-Dec-2024 07:16 | 1476672 | ||
| HMSA2_TS_DEWT_022020.nc | 16-Dec-2024 07:20 | 429217 | ||
| HMSA2_TS_DEWT_022021.nc | 16-Dec-2024 07:25 | 429455 | ||
| HMSA2_TS_DEWT_022022.nc | 16-Dec-2024 07:29 | 1477320 | ||
| HMSA2_TS_DEWT_022023.nc | 16-Dec-2024 07:34 | 1477241 | ||
| HMSA2_TS_DEWT_022025.nc | 01-Mar-2025 05:07 | 1161053 | ||
| HMSA2_TS_DEWT_022026.nc | 01-Mar-2026 05:11 | 1477097 | ||
| HMSA2_TS_DEWT_032013.nc | 16-Dec-2024 06:54 | 1474090 | ||
| HMSA2_TS_DEWT_032016.nc | 16-Dec-2024 07:09 | 1475054 | ||
| HMSA2_TS_DEWT_032018.nc | 16-Dec-2024 07:12 | 1473362 | ||
| HMSA2_TS_DEWT_032019.nc | 16-Dec-2024 07:17 | 1472821 | ||
| HMSA2_TS_DEWT_032020.nc | 16-Dec-2024 07:21 | 1476948 | ||
| HMSA2_TS_DEWT_032021.nc | 16-Dec-2024 07:25 | 1477798 | ||
| HMSA2_TS_DEWT_032022.nc | 16-Dec-2024 07:30 | 1477349 | ||
| HMSA2_TS_DEWT_032023.nc | 16-Dec-2024 07:34 | 1625130 | ||
| HMSA2_TS_DEWT_032025.nc | 02-Apr-2025 04:05 | 1473684 | ||
| HMSA2_TS_DEWT_032026.nc | 16-Mar-2026 04:52 | 1627593 | ||
| HMSA2_TS_DEWT_042013.nc | 16-Dec-2024 06:55 | 429839 | ||
| HMSA2_TS_DEWT_042015.nc | 16-Dec-2024 07:08 | 429819 | ||
| HMSA2_TS_DEWT_042016.nc | 16-Dec-2024 07:09 | 1627799 | ||
| HMSA2_TS_DEWT_042018.nc | 16-Dec-2024 07:13 | 1626021 | ||
| HMSA2_TS_DEWT_042019.nc | 16-Dec-2024 07:17 | 1627043 | ||
| HMSA2_TS_DEWT_042020.nc | 16-Dec-2024 07:21 | 1627561 | ||
| HMSA2_TS_DEWT_042021.nc | 16-Dec-2024 07:25 | 1477962 | ||
| HMSA2_TS_DEWT_042022.nc | 16-Dec-2024 07:30 | 1478285 | ||
| HMSA2_TS_DEWT_042023.nc | 16-Dec-2024 07:34 | 1627387 | ||
| HMSA2_TS_DEWT_042025.nc | 01-May-2025 05:02 | 1626509 | ||
| HMSA2_TS_DEWT_052015.nc | 16-Dec-2024 07:08 | 1626945 | ||
| HMSA2_TS_DEWT_052016.nc | 16-Dec-2024 07:09 | 1475684 | ||
| HMSA2_TS_DEWT_052018.nc | 16-Dec-2024 07:13 | 1153281 | ||
| HMSA2_TS_DEWT_052019.nc | 16-Dec-2024 07:17 | 429592 | ||
| HMSA2_TS_DEWT_052020.nc | 16-Dec-2024 07:21 | 429602 | ||
| HMSA2_TS_DEWT_052021.nc | 16-Dec-2024 07:26 | 429600 | ||
| HMSA2_TS_DEWT_052022.nc | 16-Dec-2024 07:30 | 429607 | ||
| HMSA2_TS_DEWT_052023.nc | 16-Dec-2024 07:35 | 429615 | ||
| HMSA2_TS_DEWT_052025.nc | 01-Jun-2025 08:29 | 429602 | ||
| HMSA2_TS_DEWT_062015.nc | 16-Dec-2024 07:08 | 429607 | ||
| HMSA2_TS_DEWT_062016.nc | 16-Dec-2024 07:10 | 429608 | ||
| HMSA2_TS_DEWT_062018.nc | 16-Dec-2024 07:13 | 429909 | ||
| HMSA2_TS_DEWT_062019.nc | 16-Dec-2024 07:18 | 588158 | ||
| HMSA2_TS_DEWT_062020.nc | 16-Dec-2024 07:22 | 588161 | ||
| HMSA2_TS_DEWT_062021.nc | 16-Dec-2024 07:26 | 588044 | ||
| HMSA2_TS_DEWT_062022.nc | 16-Dec-2024 07:31 | 588098 | ||
| HMSA2_TS_DEWT_062023.nc | 16-Dec-2024 07:35 | 438833 | ||
| HMSA2_TS_DEWT_062025.nc | 17-Jun-2025 06:40 | 588110 | ||
| HMSA2_TS_DEWT_072015.nc | 16-Dec-2024 07:08 | 588196 | ||
| HMSA2_TS_DEWT_072016.nc | 16-Dec-2024 07:10 | 588166 | ||
| HMSA2_TS_DEWT_072018.nc | 16-Dec-2024 07:14 | 588162 | ||
| HMSA2_TS_DEWT_072019.nc | 16-Dec-2024 07:18 | 426043 | ||
| HMSA2_TS_DEWT_072020.nc | 16-Dec-2024 07:22 | 588191 | ||
| HMSA2_TS_DEWT_072021.nc | 16-Dec-2024 07:27 | 588209 | ||
| HMSA2_TS_DEWT_072022.nc | 16-Dec-2024 07:31 | 588131 | ||
| HMSA2_TS_DEWT_072023.nc | 16-Dec-2024 07:36 | 588119 | ||
| HMSA2_TS_DEWT_072025.nc | 16-Aug-2025 06:59 | 587902 | ||
| HMSA2_TS_DEWT_082016.nc | 16-Dec-2024 07:10 | 588120 | ||
| HMSA2_TS_DEWT_082018.nc | 16-Dec-2024 07:14 | 588129 | ||
| HMSA2_TS_DEWT_082019.nc | 16-Dec-2024 07:18 | 587998 | ||
| HMSA2_TS_DEWT_082020.nc | 16-Dec-2024 07:22 | 588156 | ||
| HMSA2_TS_DEWT_082021.nc | 16-Dec-2024 07:27 | 588058 | ||
| HMSA2_TS_DEWT_082022.nc | 16-Dec-2024 07:32 | 428937 | ||
| HMSA2_TS_DEWT_082023.nc | 16-Dec-2024 07:36 | 428604 | ||
| HMSA2_TS_DEWT_082025.nc | 01-Sep-2025 07:23 | 428606 | ||
| HMSA2_TS_DEWT_092016.nc | 16-Dec-2024 07:10 | 428604 | ||
| HMSA2_TS_DEWT_092018.nc | 16-Dec-2024 07:14 | 428949 | ||
| HMSA2_TS_DEWT_092019.nc | 16-Dec-2024 07:19 | 428607 | ||
| HMSA2_TS_DEWT_092020.nc | 16-Dec-2024 07:23 | 428604 | ||
| HMSA2_TS_DEWT_092021.nc | 16-Dec-2024 07:27 | 428603 | ||
| HMSA2_TS_DEWT_092022.nc | 16-Dec-2024 07:32 | 429125 | ||
| HMSA2_TS_DEWT_092023.nc | 16-Dec-2024 07:36 | 438740 | ||
| HMSA2_TS_DEWT_092025.nc | 01-Oct-2025 07:21 | 438782 | ||
| HMSA2_TS_DEWT_102016.nc | 16-Dec-2024 07:10 | 438725 | ||
| HMSA2_TS_DEWT_102018.nc | 16-Dec-2024 07:15 | 439461 | ||
| HMSA2_TS_DEWT_102019.nc | 16-Dec-2024 07:19 | 437741 | ||
| HMSA2_TS_DEWT_102020.nc | 16-Dec-2024 07:23 | 438811 | ||
| HMSA2_TS_DEWT_102021.nc | 16-Dec-2024 07:28 | 438795 | ||
| HMSA2_TS_DEWT_102022.nc | 16-Dec-2024 07:32 | 439491 | ||
| HMSA2_TS_DEWT_102023.nc | 16-Dec-2024 07:37 | 438810 | ||
| HMSA2_TS_DEWT_102025.nc | 01-Nov-2025 06:23 | 438791 | ||
| HMSA2_TS_DEWT_112012.nc | 16-Dec-2024 06:51 | 438798 | ||
| HMSA2_TS_DEWT_112015.nc | 16-Dec-2024 07:08 | 439479 | ||
| HMSA2_TS_DEWT_112016.nc | 16-Dec-2024 07:11 | 438770 | ||
| HMSA2_TS_DEWT_112018.nc | 16-Dec-2024 07:15 | 438792 | ||
| HMSA2_TS_DEWT_112019.nc | 16-Dec-2024 07:19 | 438775 | ||
| HMSA2_TS_DEWT_112020.nc | 16-Dec-2024 07:24 | 439441 | ||
| HMSA2_TS_DEWT_112021.nc | 16-Dec-2024 07:28 | 438743 | ||
| HMSA2_TS_DEWT_112022.nc | 16-Dec-2024 07:33 | 438771 | ||
| HMSA2_TS_DEWT_112023.nc | 16-Dec-2024 07:37 | 438728 | ||
| HMSA2_TS_DEWT_112024.nc | 17-Jan-2025 17:46 | 419686 | ||
| HMSA2_TS_DEWT_112025.nc | 01-Dec-2025 10:23 | 429593 | ||
| HMSA2_TS_DEWT_122012.nc | 16-Dec-2024 06:52 | 429614 | ||
| HMSA2_TS_DEWT_122015.nc | 16-Dec-2024 07:09 | 429601 | ||
| HMSA2_TS_DEWT_122016.nc | 16-Dec-2024 07:11 | 429602 | ||
| HMSA2_TS_DEWT_122017.nc | 16-Dec-2024 07:12 | 429609 | ||
| HMSA2_TS_DEWT_122018.nc | 16-Dec-2024 07:15 | 429602 | ||
| HMSA2_TS_DEWT_122019.nc | 16-Dec-2024 07:20 | 429602 | ||
| HMSA2_TS_DEWT_122020.nc | 16-Dec-2024 07:24 | 429608 | ||
| HMSA2_TS_DEWT_122021.nc | 16-Dec-2024 07:29 | 429822 | ||
| HMSA2_TS_DEWT_122022.nc | 16-Dec-2024 07:33 | 588166 | ||
| HMSA2_TS_DEWT_122023.nc | 16-Dec-2024 07:37 | 588157 | ||
| HMSA2_TS_DEWT_122024.nc | 22-Jan-2025 18:27 | 588034 | ||
| HMSA2_TS_DEWT_122025.nc | 01-Jan-2026 04:54 | 588175 | ||